createdAt,value
2022-10-04T00:00:22.106Z,14.2
2022-10-04T00:01:25.275Z,14.2
2022-10-04T00:02:28.326Z,14.2
2022-10-04T00:03:31.274Z,14.2
2022-10-04T00:04:34.623Z,14.2
2022-10-04T00:05:37.416Z,14.2
2022-10-04T00:06:40.511Z,14.2
2022-10-04T00:07:43.506Z,14.2
2022-10-04T00:08:46.867Z,14.3
2022-10-04T00:09:49.188Z,14.2
2022-10-04T00:10:52.204Z,14.3
2022-10-04T00:11:55.164Z,14.3
2022-10-04T00:12:58.873Z,14.3
2022-10-04T00:14:01.728Z,14.3
2022-10-04T00:15:05.214Z,14.3
2022-10-04T00:16:08.433Z,14.3
2022-10-04T00:17:11.941Z,14.3
2022-10-04T00:18:15.363Z,14.3
2022-10-04T00:19:18.225Z,14.3
2022-10-04T00:20:21.726Z,14.3
2022-10-04T00:21:25.099Z,14.3
2022-10-04T00:22:28.648Z,14.3
2022-10-04T00:23:32.030Z,14.3
2022-10-04T00:24:34.554Z,14.3
2022-10-04T00:25:37.072Z,14.4
2022-10-04T00:26:39.602Z,14.3
2022-10-04T00:27:42.675Z,14.3
2022-10-04T00:28:46.137Z,14.3
2022-10-04T00:29:49.346Z,14.4
2022-10-04T00:30:53.184Z,14.4
2022-10-04T00:31:55.887Z,14.4
2022-10-04T00:32:58.512Z,14.4
2022-10-04T00:34:01.673Z,14.4
2022-10-04T00:35:04.709Z,14.4
2022-10-04T00:36:08.148Z,14.4
2022-10-04T00:37:10.678Z,14.4
2022-10-04T00:38:14.371Z,14.4
2022-10-04T00:39:17.437Z,14.4
2022-10-04T00:40:21.073Z,14.4
2022-10-04T00:41:23.407Z,14.4
2022-10-04T00:42:25.936Z,14.4
2022-10-04T00:43:29.384Z,14.4
2022-10-04T00:44:32.903Z,14.4
2022-10-04T00:45:36.284Z,14.4
2022-10-04T00:46:39.529Z,14.4
2022-10-04T00:47:42.528Z,14.4
2022-10-04T00:48:45.643Z,14.4
2022-10-04T00:49:49.147Z,14.4
2022-10-04T00:50:51.946Z,14.4
2022-10-04T00:51:55.138Z,14.4
2022-10-04T00:52:57.730Z,14.3
2022-10-04T00:54:00.596Z,14.3
2022-10-04T00:55:03.315Z,14.3
2022-10-04T00:56:06.121Z,14.3
2022-10-04T00:57:09.747Z,14.3
2022-10-04T00:58:13.231Z,14.3
2022-10-04T00:59:15.743Z,14.3
2022-10-04T01:00:18.478Z,14.3
2022-10-04T01:01:21.661Z,14.3
2022-10-04T01:02:25.263Z,14.3
2022-10-04T01:03:29.213Z,14.3
2022-10-04T01:04:32.021Z,14.3
2022-10-04T01:05:35.756Z,14.2
2022-10-04T01:06:39.029Z,14.2
2022-10-04T01:07:42.399Z,14.2
2022-10-04T01:08:44.930Z,14.3
2022-10-04T01:09:47.730Z,14.2
2022-10-04T01:10:51.083Z,14.2
2022-10-04T01:11:53.513Z,14.2
2022-10-04T01:12:56.031Z,14.2
2022-10-04T01:13:59.485Z,14.2
2022-10-04T01:15:02.489Z,14.2
2022-10-04T01:16:06.279Z,14.2
2022-10-04T01:17:09.233Z,14.2
2022-10-04T01:18:12.737Z,14.2
2022-10-04T01:19:15.520Z,14.3
2022-10-04T01:20:18.618Z,14.3
2022-10-04T01:21:21.495Z,14.3
2022-10-04T01:22:24.329Z,14.3
2022-10-04T01:23:27.413Z,14.3
2022-10-04T01:24:30.576Z,14.3
2022-10-04T01:25:33.015Z,14.3
2022-10-04T01:26:35.475Z,14.2
2022-10-04T01:27:38.458Z,14.3
2022-10-04T01:28:42.162Z,14.3
2022-10-04T01:29:44.966Z,14.3
2022-10-04T01:30:48.045Z,14.3
2022-10-04T01:31:50.895Z,14.3
2022-10-04T01:32:54.764Z,14.3
2022-10-04T01:33:58.203Z,14.3
2022-10-04T01:35:00.439Z,14.3
2022-10-04T01:36:03.929Z,14.4
2022-10-04T01:37:06.798Z,14.4
2022-10-04T01:38:09.830Z,14.4
2022-10-04T01:39:13.065Z,14.4
2022-10-04T01:40:16.219Z,14.4
2022-10-04T01:41:19.950Z,14.5
2022-10-04T01:42:23.114Z,14.4
2022-10-04T01:43:25.290Z,14.5
2022-10-04T01:44:27.936Z,14.4
2022-10-04T01:45:31.048Z,14.4
2022-10-04T01:46:34.738Z,14.4
2022-10-04T01:47:38.346Z,14.5
2022-10-04T01:48:41.228Z,14.5
2022-10-04T01:49:44.617Z,14.4
2022-10-04T01:50:47.410Z,14.5
2022-10-04T01:51:50.782Z,14.5
2022-10-04T01:52:53.682Z,14.5
2022-10-04T01:53:56.598Z,14.5
2022-10-04T01:55:00.064Z,14.5
2022-10-04T01:56:02.504Z,14.5
2022-10-04T01:57:05.288Z,14.5
2022-10-04T01:58:08.440Z,14.5
2022-10-04T01:59:11.511Z,14.5
2022-10-04T02:00:14.651Z,14.5
2022-10-04T02:01:17.830Z,14.5
2022-10-04T02:02:21.025Z,14.5
2022-10-04T02:03:24.281Z,14.5
2022-10-04T02:04:27.728Z,14.5
2022-10-04T02:05:30.801Z,14.5
2022-10-04T02:06:33.885Z,14.5
2022-10-04T02:07:36.510Z,14.6
2022-10-04T02:08:39.378Z,14.5
2022-10-04T02:09:42.203Z,14.5
2022-10-04T02:10:45.102Z,14.5
2022-10-04T02:11:48.095Z,14.6
2022-10-04T02:12:51.593Z,14.5
2022-10-04T02:13:54.702Z,14.5
2022-10-04T02:14:58.152Z,14.5
2022-10-04T02:16:00.990Z,14.6
2022-10-04T02:17:03.890Z,14.6
2022-10-04T02:18:07.037Z,14.6
2022-10-04T02:19:10.458Z,14.6
2022-10-04T02:20:13.056Z,14.6
2022-10-04T02:21:16.512Z,14.6
2022-10-04T02:22:19.122Z,14.6
2022-10-04T02:23:21.860Z,14.6
2022-10-04T02:24:25.284Z,14.6
2022-10-04T02:25:28.101Z,14.6
2022-10-04T02:26:31.742Z,14.6
2022-10-04T02:27:34.815Z,14.6
2022-10-04T02:28:38.165Z,14.6
2022-10-04T02:29:40.964Z,14.6
2022-10-04T02:30:43.416Z,14.6
2022-10-04T02:31:47.303Z,14.6
2022-10-04T02:32:50.640Z,14.6
2022-10-04T02:33:54.284Z,14.6
2022-10-04T02:34:57.649Z,14.6
2022-10-04T02:36:00.884Z,14.7
2022-10-04T02:37:04.099Z,14.6
2022-10-04T02:38:07.459Z,14.7
2022-10-04T02:39:10.545Z,14.7
2022-10-04T02:40:14.204Z,14.7
2022-10-04T02:41:17.107Z,14.7
2022-10-04T02:42:20.541Z,14.7
2022-10-04T02:43:23.061Z,14.7
2022-10-04T02:44:25.637Z,14.7
2022-10-04T02:45:28.595Z,14.7
2022-10-04T02:46:31.994Z,14.7
2022-10-04T02:47:35.600Z,14.7
2022-10-04T02:48:38.755Z,14.7
2022-10-04T02:49:41.558Z,14.7
2022-10-04T02:50:43.614Z,14.7
2022-10-04T02:51:46.202Z,14.7
2022-10-04T02:52:49.415Z,14.7
2022-10-04T02:53:52.211Z,14.7
2022-10-04T02:54:55.369Z,14.7
2022-10-04T02:55:58.265Z,14.7
2022-10-04T02:57:01.262Z,14.7
2022-10-04T02:58:04.991Z,14.7
2022-10-04T02:59:08.718Z,14.7
2022-10-04T03:00:11.977Z,14.7
2022-10-04T03:01:14.996Z,14.7
2022-10-04T03:02:30.367Z,14.7
2022-10-04T03:03:33.628Z,14.7
2022-10-04T03:04:36.368Z,14.6
2022-10-04T03:05:40.086Z,14.6
2022-10-04T03:06:42.957Z,14.6
2022-10-04T03:07:46.403Z,14.6
2022-10-04T03:08:49.611Z,14.6
2022-10-04T03:09:52.759Z,14.6
2022-10-04T03:10:55.584Z,14.6
2022-10-04T03:11:58.476Z,14.6
2022-10-04T03:13:01.928Z,14.6
2022-10-04T03:14:05.176Z,14.5
2022-10-04T03:15:07.835Z,14.5
2022-10-04T03:16:11.250Z,14.5
2022-10-04T03:17:14.357Z,14.5
2022-10-04T03:18:16.811Z,14.5
2022-10-04T03:19:19.879Z,14.4
2022-10-04T03:20:23.230Z,14.4
2022-10-04T03:21:26.308Z,14.4
2022-10-04T03:22:29.536Z,14.4
2022-10-04T03:23:32.733Z,14.4
2022-10-04T03:24:35.952Z,14.4
2022-10-04T03:25:39.383Z,14.4
2022-10-04T03:26:42.381Z,14.4
2022-10-04T03:27:44.711Z,14.4
2022-10-04T03:28:47.169Z,14.4
2022-10-04T03:29:50.413Z,14.5
2022-10-04T03:31:01.654Z,14.5
2022-10-04T03:32:04.966Z,14.4
2022-10-04T03:33:07.877Z,14.5
2022-10-04T03:34:11.019Z,14.5
2022-10-04T03:35:14.248Z,14.5
2022-10-04T03:36:16.502Z,14.5
2022-10-04T03:37:18.744Z,14.5
2022-10-04T03:38:21.920Z,14.5
2022-10-04T03:39:25.387Z,14.5
2022-10-04T03:40:29.415Z,14.5
2022-10-04T03:41:32.570Z,14.5
2022-10-04T03:42:35.668Z,14.5
2022-10-04T03:43:38.659Z,14.5
2022-10-04T03:44:41.691Z,14.5
2022-10-04T03:45:45.696Z,14.5
2022-10-04T03:46:48.184Z,14.5
2022-10-04T03:47:51.913Z,14.5
2022-10-04T03:48:55.274Z,14.5
2022-10-04T03:49:58.130Z,14.5
2022-10-04T03:51:01.325Z,14.5
2022-10-04T03:52:04.607Z,14.5
2022-10-04T03:53:06.715Z,14.5
2022-10-04T03:54:09.833Z,14.5
2022-10-04T03:55:12.713Z,14.5
2022-10-04T03:56:16.176Z,14.5
2022-10-04T03:57:18.757Z,14.5
2022-10-04T03:58:21.580Z,14.5
2022-10-04T03:59:24.922Z,14.5
2022-10-04T04:00:27.828Z,14.5
2022-10-04T04:01:31.406Z,14.5
2022-10-04T04:02:34.726Z,14.5
2022-10-04T04:03:38.103Z,14.4
2022-10-04T04:04:41.189Z,14.5
2022-10-04T04:05:44.082Z,14.4
2022-10-04T04:06:47.153Z,14.5
2022-10-04T04:07:50.608Z,14.5
2022-10-04T04:08:53.832Z,14.4
2022-10-04T04:09:57.012Z,14.5
2022-10-04T04:11:00.285Z,14.5
2022-10-04T04:12:03.684Z,14.4
2022-10-04T04:13:06.564Z,14.5
2022-10-04T04:14:09.669Z,14.5
2022-10-04T04:15:12.663Z,14.5
2022-10-04T04:16:16.615Z,14.5
2022-10-04T04:17:20.483Z,14.5
2022-10-04T04:18:23.829Z,14.5
2022-10-04T04:19:27.177Z,14.5
2022-10-04T04:20:30.039Z,14.5
2022-10-04T04:21:34.065Z,14.5
2022-10-04T04:22:36.779Z,14.6
2022-10-04T04:23:39.907Z,14.6
2022-10-04T04:24:42.624Z,14.6
2022-10-04T04:25:46.120Z,14.6
2022-10-04T04:26:48.727Z,14.6
2022-10-04T04:27:52.084Z,14.6
2022-10-04T04:28:55.694Z,14.6
2022-10-04T04:29:58.886Z,14.6
2022-10-04T04:31:02.617Z,14.6
2022-10-04T04:32:05.668Z,14.6
2022-10-04T04:33:09.452Z,14.6
2022-10-04T04:34:12.326Z,14.6
2022-10-04T04:35:15.045Z,14.6
2022-10-04T04:36:18.107Z,14.6
2022-10-04T04:37:20.914Z,14.6
2022-10-04T04:38:22.877Z,14.6
2022-10-04T04:39:26.695Z,14.6
2022-10-04T04:40:29.879Z,14.6
2022-10-04T04:41:32.961Z,14.6
2022-10-04T04:42:35.486Z,14.6
2022-10-04T04:43:38.867Z,14.6
2022-10-04T04:44:42.135Z,14.6
2022-10-04T04:45:45.449Z,14.6
2022-10-04T04:47:29.532Z,14.6
2022-10-04T04:48:32.912Z,14.6
2022-10-04T04:49:35.724Z,14.6
2022-10-04T04:50:38.818Z,14.6
2022-10-04T04:51:43.537Z,14.6
2022-10-04T04:52:46.962Z,14.6
2022-10-04T04:53:50.238Z,14.6
2022-10-04T04:54:53.953Z,14.6
2022-10-04T04:56:10.143Z,14.6
2022-10-04T04:57:20.518Z,14.6
2022-10-04T04:58:22.827Z,14.6
2022-10-04T04:59:26.315Z,14.6
2022-10-04T05:00:30.116Z,14.6
2022-10-04T05:01:33.818Z,14.6
2022-10-04T05:02:37.443Z,14.6
2022-10-04T05:03:40.865Z,14.6
2022-10-04T05:04:44.309Z,14.6
2022-10-04T05:05:47.022Z,14.6
2022-10-04T05:06:50.641Z,14.6
2022-10-04T05:07:53.423Z,14.6
2022-10-04T05:08:55.940Z,14.6
2022-10-04T05:09:59.702Z,14.6
2022-10-04T05:11:02.147Z,14.6
2022-10-04T05:12:05.237Z,14.5
2022-10-04T05:13:08.619Z,14.6
2022-10-04T05:14:11.243Z,14.5
2022-10-04T05:15:16.344Z,14.5
2022-10-04T05:16:21.771Z,14.5
2022-10-04T05:17:25.726Z,14.5
2022-10-04T05:18:28.535Z,14.5
2022-10-04T05:19:31.920Z,14.5
2022-10-04T05:20:34.998Z,14.5
2022-10-04T05:21:43.828Z,14.5
2022-10-04T05:22:48.236Z,14.5
2022-10-04T05:23:50.832Z,14.5
2022-10-04T05:24:53.446Z,14.5
2022-10-04T05:25:56.179Z,14.5
2022-10-04T05:26:59.170Z,14.5
2022-10-04T05:28:02.748Z,14.5
2022-10-04T05:29:05.979Z,14.5
2022-10-04T05:30:09.444Z,14.5
2022-10-04T05:31:13.175Z,14.5
2022-10-04T05:32:16.674Z,14.5
2022-10-04T05:33:20.046Z,14.5
2022-10-04T05:34:22.662Z,14.5
2022-10-04T05:35:26.404Z,14.5
2022-10-04T05:36:29.580Z,14.5
2022-10-04T05:37:33.007Z,14.5
2022-10-04T05:38:36.136Z,14.5
2022-10-04T05:39:39.487Z,14.5
2022-10-04T05:40:42.283Z,14.6
2022-10-04T05:41:45.779Z,14.5
2022-10-04T05:42:49.072Z,14.5
2022-10-04T05:43:51.875Z,14.5
2022-10-04T05:44:55.336Z,14.5
2022-10-04T05:45:58.386Z,14.5
2022-10-04T05:47:02.140Z,14.5
2022-10-04T05:48:04.936Z,14.5
2022-10-04T05:49:08.120Z,14.5
2022-10-04T05:50:11.040Z,14.5
2022-10-04T05:51:14.552Z,14.5
2022-10-04T05:52:17.354Z,14.5
2022-10-04T05:53:20.498Z,14.5
2022-10-04T05:54:23.221Z,14.5
2022-10-04T05:55:26.746Z,14.4
2022-10-04T05:56:30.116Z,14.4
2022-10-04T05:57:32.690Z,14.4
2022-10-04T05:58:35.557Z,14.4
2022-10-04T05:59:39.286Z,14.4
2022-10-04T06:00:42.459Z,14.4
2022-10-04T06:01:47.165Z,14.5
2022-10-04T06:02:52.034Z,14.4
2022-10-04T06:03:54.876Z,14.4
2022-10-04T06:04:57.958Z,14.4
2022-10-04T06:06:00.421Z,14.4
2022-10-04T06:07:04.134Z,14.5
2022-10-04T06:08:07.862Z,14.5
2022-10-04T06:09:10.457Z,14.5
2022-10-04T06:10:13.262Z,14.5
2022-10-04T06:11:15.510Z,14.5
2022-10-04T06:12:18.389Z,14.5
2022-10-04T06:13:21.570Z,14.5
2022-10-04T06:14:24.816Z,14.5
2022-10-04T06:15:27.708Z,14.5
2022-10-04T06:16:31.430Z,14.5
2022-10-04T06:17:34.653Z,14.5
2022-10-04T06:18:38.435Z,14.5
2022-10-04T06:19:41.659Z,14.5
2022-10-04T06:20:44.967Z,14.5
2022-10-04T06:21:47.427Z,14.5
2022-10-04T06:22:51.229Z,14.5
2022-10-04T06:23:54.027Z,14.5
2022-10-04T06:24:57.495Z,14.5
2022-10-04T06:26:00.293Z,14.5
2022-10-04T06:27:03.082Z,14.5
2022-10-04T06:28:05.659Z,14.5
2022-10-04T06:29:08.728Z,14.5
2022-10-04T06:30:11.802Z,14.6
2022-10-04T06:31:14.882Z,14.6
2022-10-04T06:32:18.469Z,14.6
2022-10-04T06:33:22.281Z,14.6
2022-10-04T06:34:25.871Z,14.6
2022-10-04T06:35:29.608Z,14.6
2022-10-04T06:36:32.706Z,14.6
2022-10-04T06:37:35.623Z,14.6
2022-10-04T06:38:38.439Z,14.6
2022-10-04T06:39:41.513Z,14.6
2022-10-04T06:40:44.017Z,14.6
2022-10-04T06:41:47.478Z,14.6
2022-10-04T06:42:49.790Z,14.6
2022-10-04T06:43:52.895Z,14.6
2022-10-04T06:44:56.085Z,14.6
2022-10-04T06:45:59.704Z,14.6
2022-10-04T06:47:02.821Z,14.6
2022-10-04T06:48:05.915Z,14.6
2022-10-04T06:49:09.711Z,14.6
2022-10-04T06:50:13.179Z,14.6
2022-10-04T06:51:16.620Z,14.6
2022-10-04T06:52:19.525Z,14.6
2022-10-04T06:53:22.639Z,14.6
2022-10-04T06:54:26.128Z,14.6
2022-10-04T06:55:29.748Z,14.7
2022-10-04T06:56:32.509Z,14.7
2022-10-04T06:57:35.580Z,14.7
2022-10-04T06:58:38.378Z,14.7
2022-10-04T06:59:42.136Z,14.7
2022-10-04T07:00:45.028Z,14.7
2022-10-04T07:01:49.188Z,14.7
2022-10-04T07:02:52.454Z,14.7
2022-10-04T07:03:55.816Z,14.7
2022-10-04T07:05:14.947Z,14.7
2022-10-04T07:06:18.660Z,14.7
2022-10-04T07:07:21.742Z,14.8
2022-10-04T07:08:24.944Z,14.8
2022-10-04T07:09:28.683Z,14.8
2022-10-04T07:10:31.311Z,14.8
2022-10-04T07:11:34.720Z,14.8
2022-10-04T07:12:37.789Z,14.8
2022-10-04T07:13:40.857Z,14.8
2022-10-04T07:14:43.581Z,14.9
2022-10-04T07:15:46.371Z,14.9
2022-10-04T07:16:49.690Z,14.8
2022-10-04T07:17:52.773Z,14.8
2022-10-04T07:18:55.275Z,14.9
2022-10-04T07:19:59.006Z,14.8
2022-10-04T07:21:01.905Z,14.9
2022-10-04T07:22:05.300Z,14.8
2022-10-04T07:23:07.844Z,14.8
2022-10-04T07:24:11.294Z,14.8
2022-10-04T07:25:14.757Z,14.9
2022-10-04T07:26:18.221Z,14.9
2022-10-04T07:27:21.953Z,14.9
2022-10-04T07:28:24.653Z,14.9
2022-10-04T07:29:27.674Z,14.9
2022-10-04T07:30:31.124Z,14.9
2022-10-04T07:31:33.848Z,14.9
2022-10-04T07:32:37.935Z,14.9
2022-10-04T07:33:41.388Z,14.9
2022-10-04T07:34:44.060Z,14.9
2022-10-04T07:35:47.173Z,14.9
2022-10-04T07:36:50.032Z,14.9
2022-10-04T07:37:53.506Z,14.9
2022-10-04T07:38:57.164Z,14.9
2022-10-04T07:40:00.604Z,14.9
2022-10-04T07:41:04.353Z,14.9
2022-10-04T07:42:07.613Z,14.9
2022-10-04T07:43:11.051Z,15
2022-10-04T07:44:14.800Z,15
2022-10-04T07:45:18.068Z,15
2022-10-04T07:46:21.789Z,15
2022-10-04T07:47:25.084Z,15
2022-10-04T07:48:27.923Z,15
2022-10-04T07:49:31.073Z,15
2022-10-04T07:50:33.765Z,15
2022-10-04T07:51:36.293Z,15
2022-10-04T07:52:39.364Z,15.1
2022-10-04T07:53:42.873Z,15.1
2022-10-04T07:54:46.222Z,15.1
2022-10-04T07:55:49.362Z,15.1
2022-10-04T07:56:52.736Z,15.1
2022-10-04T07:57:56.073Z,15.2
2022-10-04T07:58:58.941Z,15.2
2022-10-04T08:00:02.302Z,15.2
2022-10-04T08:01:05.675Z,15.2
2022-10-04T08:02:09.061Z,15.2
2022-10-04T08:03:13.470Z,15.2
2022-10-04T08:04:17.294Z,15.3
2022-10-04T08:05:20.747Z,15.3
2022-10-04T08:06:24.206Z,15.3
2022-10-04T08:07:27.871Z,15.3
2022-10-04T08:08:31.604Z,15.3
2022-10-04T08:09:34.727Z,15.3
2022-10-04T08:10:38.264Z,15.3
2022-10-04T08:11:42.160Z,15.4
2022-10-04T08:12:46.420Z,15.4
2022-10-04T08:13:49.226Z,15.4
2022-10-04T08:14:51.384Z,15.4
2022-10-04T08:15:54.966Z,15.4
2022-10-04T08:16:58.043Z,15.4
2022-10-04T08:18:00.903Z,15.4
2022-10-04T08:19:04.551Z,15.4
2022-10-04T08:20:07.005Z,15.5
2022-10-04T08:21:09.877Z,15.5
2022-10-04T08:22:13.234Z,15.5
2022-10-04T08:23:17.056Z,15.5
2022-10-04T08:24:20.219Z,15.6
2022-10-04T08:25:23.424Z,15.6
2022-10-04T08:26:26.596Z,15.6
2022-10-04T08:27:29.883Z,15.6
2022-10-04T08:28:33.705Z,15.6
2022-10-04T08:29:36.192Z,15.6
2022-10-04T08:30:40.049Z,15.6
2022-10-04T08:31:44.445Z,15.6
2022-10-04T08:32:47.902Z,15.6
2022-10-04T08:33:51.268Z,15.6
2022-10-04T08:34:54.537Z,15.6
2022-10-04T08:35:58.025Z,15.7
2022-10-04T08:37:01.335Z,15.7
2022-10-04T08:38:05.422Z,15.7
2022-10-04T08:39:08.571Z,15.7
2022-10-04T08:40:14.418Z,15.7
2022-10-04T08:41:18.706Z,15.7
2022-10-04T08:42:21.862Z,15.7
2022-10-04T08:43:26.076Z,15.8
2022-10-04T08:44:29.809Z,15.7
2022-10-04T08:45:32.690Z,15.8
2022-10-04T08:46:35.703Z,15.8
2022-10-04T08:47:39.163Z,15.8
2022-10-04T08:48:42.520Z,15.8
2022-10-04T08:49:45.633Z,15.8
2022-10-04T08:50:49.063Z,15.8
2022-10-04T08:51:52.010Z,15.8
2022-10-04T08:52:54.610Z,15.8
2022-10-04T08:53:57.702Z,15.9
2022-10-04T08:55:00.905Z,15.9
2022-10-04T08:56:04.093Z,15.9
2022-10-04T08:57:15.811Z,15.9
2022-10-04T08:58:20.283Z,15.9
2022-10-04T08:59:23.082Z,15.9
2022-10-04T09:00:26.571Z,15.9
2022-10-04T09:01:30.202Z,15.9
2022-10-04T09:02:33.155Z,15.9
2022-10-04T09:03:37.071Z,16
2022-10-04T09:04:40.522Z,16
2022-10-04T09:05:43.414Z,16
2022-10-04T09:06:47.302Z,16
2022-10-04T09:07:49.557Z,16
2022-10-04T09:08:52.363Z,16
2022-10-04T09:09:55.638Z,16.1
2022-10-04T09:10:58.522Z,16
2022-10-04T09:12:01.044Z,16.1
2022-10-04T09:13:04.521Z,16.1
2022-10-04T09:14:07.859Z,16.1
2022-10-04T09:15:11.020Z,16.1
2022-10-04T09:16:14.470Z,16.1
2022-10-04T09:17:23.613Z,16.2
2022-10-04T09:18:26.879Z,16.2
2022-10-04T09:19:29.316Z,16.2
2022-10-04T09:20:41.046Z,16.3
2022-10-04T09:21:44.237Z,16.3
2022-10-04T09:22:47.841Z,16.3
2022-10-04T09:23:51.236Z,16.3
2022-10-04T09:24:54.115Z,16.4
2022-10-04T09:25:56.905Z,16.4
2022-10-04T09:27:00.090Z,16.4
2022-10-04T09:28:02.902Z,16.5
2022-10-04T09:29:07.136Z,16.5
2022-10-04T09:30:10.129Z,16.6
2022-10-04T09:31:13.461Z,16.6
2022-10-04T09:32:17.583Z,16.6
2022-10-04T09:33:20.393Z,16.6
2022-10-04T09:34:23.544Z,16.6
2022-10-04T09:35:26.884Z,16.6
2022-10-04T09:36:29.327Z,16.7
2022-10-04T09:37:32.800Z,16.7
2022-10-04T09:38:36.060Z,16.7
2022-10-04T09:39:38.878Z,16.7
2022-10-04T09:40:47.983Z,16.7
2022-10-04T09:41:51.045Z,16.7
2022-10-04T09:42:54.221Z,16.7
2022-10-04T09:43:57.950Z,16.7
2022-10-04T09:45:01.420Z,16.7
2022-10-04T09:46:05.109Z,16.7
2022-10-04T09:47:09.235Z,16.7
2022-10-04T09:48:13.022Z,16.7
2022-10-04T09:49:16.495Z,16.7
2022-10-04T09:50:19.834Z,16.8
2022-10-04T09:51:22.781Z,16.8
2022-10-04T09:52:25.657Z,16.8
2022-10-04T09:53:29.031Z,16.9
2022-10-04T09:54:32.375Z,16.9
2022-10-04T09:55:35.378Z,16.9
2022-10-04T09:56:38.874Z,17
2022-10-04T09:57:42.681Z,17
2022-10-04T09:58:46.283Z,17.1
2022-10-04T09:59:49.343Z,17.1
2022-10-04T10:00:52.860Z,17.2
2022-10-04T10:01:56.052Z,17.2
2022-10-04T10:02:59.773Z,17.3
2022-10-04T10:04:03.915Z,17.4
2022-10-04T10:05:07.740Z,17.4
2022-10-04T10:06:10.897Z,17.5
2022-10-04T10:07:14.600Z,17.6
2022-10-04T10:08:17.234Z,17.6
2022-10-04T10:09:20.582Z,17.7
2022-10-04T10:10:23.303Z,17.7
2022-10-04T10:11:27.007Z,17.7
2022-10-04T10:12:30.467Z,17.8
2022-10-04T10:13:33.091Z,17.7
2022-10-04T10:14:36.381Z,17.8
2022-10-04T10:15:39.999Z,17.8
2022-10-04T10:16:43.931Z,17.9
2022-10-04T10:17:49.659Z,17.9
2022-10-04T10:18:53.238Z,17.9
2022-10-04T10:19:56.604Z,18
2022-10-04T10:21:00.020Z,18
2022-10-04T10:22:03.351Z,18
2022-10-04T10:23:06.451Z,18
2022-10-04T10:24:09.445Z,18.1
2022-10-04T10:25:12.795Z,18.1
2022-10-04T10:26:15.905Z,18.2
2022-10-04T10:27:18.650Z,18.2
2022-10-04T10:28:21.988Z,18.2
2022-10-04T10:29:25.407Z,18.3
2022-10-04T10:30:28.526Z,18.3
2022-10-04T10:31:32.359Z,18.4
2022-10-04T10:32:36.018Z,18.4
2022-10-04T10:33:39.019Z,18.4
2022-10-04T10:34:41.383Z,18.5
2022-10-04T10:35:44.898Z,18.6
2022-10-04T10:36:48.919Z,18.6
2022-10-04T10:37:52.094Z,18.6
2022-10-04T10:38:54.956Z,18.7
2022-10-04T10:39:57.915Z,18.7
2022-10-04T10:41:00.745Z,18.7
2022-10-04T10:42:03.738Z,18.7
2022-10-04T10:43:06.925Z,18.7
2022-10-04T10:44:09.994Z,18.8
2022-10-04T10:45:12.230Z,18.8
2022-10-04T10:46:16.255Z,18.8
2022-10-04T10:47:19.946Z,18.9
2022-10-04T10:48:23.450Z,18.9
2022-10-04T10:49:26.630Z,18.9
2022-10-04T10:50:30.201Z,19
2022-10-04T10:51:33.000Z,19.1
2022-10-04T10:52:35.520Z,19.1
2022-10-04T10:53:39.247Z,19.2
2022-10-04T10:54:42.052Z,19.3
2022-10-04T10:55:44.842Z,19.4
2022-10-04T10:56:48.307Z,19.4
2022-10-04T10:57:51.939Z,19.5
2022-10-04T10:58:55.682Z,19.6
2022-10-04T10:59:58.749Z,19.7
2022-10-04T11:01:02.222Z,19.7
2022-10-04T11:02:05.811Z,19.8
2022-10-04T11:03:22.143Z,19.8
2022-10-04T11:04:35.426Z,19.9
2022-10-04T11:05:38.920Z,20
2022-10-04T11:06:42.423Z,20
2022-10-04T11:07:46.610Z,20.1
2022-10-04T11:08:49.122Z,20.1
2022-10-04T11:09:52.070Z,20.2
2022-10-04T11:10:54.975Z,20.3
2022-10-04T11:11:57.776Z,20.3
2022-10-04T11:13:00.959Z,20.4
2022-10-04T11:14:04.252Z,20.5
2022-10-04T11:15:07.148Z,20.5
2022-10-04T11:16:10.865Z,20.5
2022-10-04T11:17:14.163Z,20.6
2022-10-04T11:18:16.875Z,20.7
2022-10-04T11:19:20.019Z,20.8
2022-10-04T11:20:23.710Z,20.8
2022-10-04T11:21:26.612Z,20.8
2022-10-04T11:22:38.144Z,20.8
2022-10-04T11:23:41.447Z,20.9
2022-10-04T11:24:44.868Z,20.9
2022-10-04T11:25:47.960Z,20.9
2022-10-04T11:26:50.555Z,21
2022-10-04T11:27:58.332Z,21
2022-10-04T11:29:01.585Z,21
2022-10-04T11:30:05.033Z,21.1
2022-10-04T11:31:08.302Z,21.1
2022-10-04T11:32:11.303Z,21.1
2022-10-04T11:33:14.403Z,21.1
2022-10-04T11:34:17.849Z,21.2
2022-10-04T11:35:20.448Z,21.2
2022-10-04T11:36:23.125Z,21.3
2022-10-04T11:37:26.935Z,21.4
2022-10-04T11:38:30.563Z,21.5
2022-10-04T11:39:33.624Z,21.5
2022-10-04T11:40:36.963Z,21.7
2022-10-04T11:41:40.070Z,21.8
2022-10-04T11:42:43.223Z,21.9
2022-10-04T11:43:46.178Z,22
2022-10-04T11:44:49.372Z,22
2022-10-04T11:45:52.833Z,22.1
2022-10-04T11:46:56.230Z,22.1
2022-10-04T11:48:00.139Z,22.1
2022-10-04T11:49:03.604Z,22.1
2022-10-04T11:50:06.479Z,22.2
2022-10-04T11:51:09.722Z,22.2
2022-10-04T11:52:13.762Z,22.1
2022-10-04T11:53:16.895Z,22.2
2022-10-04T11:54:19.722Z,22.2
2022-10-04T11:55:23.444Z,22.2
2022-10-04T11:56:26.613Z,22.3
2022-10-04T11:57:30.068Z,22.4
2022-10-04T11:58:33.133Z,22.4
2022-10-04T11:59:37.140Z,22.5
2022-10-04T12:00:40.104Z,22.6
2022-10-04T12:01:43.195Z,22.7
2022-10-04T12:02:46.823Z,22.7
2022-10-04T12:03:50.984Z,22.8
2022-10-04T12:04:54.601Z,22.9
2022-10-04T12:05:57.929Z,22.9
2022-10-04T12:07:01.275Z,22.9
2022-10-04T12:08:05.058Z,22.9
2022-10-04T12:09:08.844Z,23
2022-10-04T12:10:12.300Z,23
2022-10-04T12:11:15.651Z,23.1
2022-10-04T12:12:18.658Z,23.1
2022-10-04T12:13:21.376Z,23.1
2022-10-04T12:14:24.232Z,23.2
2022-10-04T12:15:27.377Z,23.2
2022-10-04T12:16:31.551Z,23.2
2022-10-04T12:17:34.543Z,23.2
2022-10-04T12:18:37.350Z,23.3
2022-10-04T12:19:40.782Z,23.4
2022-10-04T12:20:44.268Z,23.4
2022-10-04T12:21:47.469Z,23.4
2022-10-04T12:22:50.176Z,23.4
2022-10-04T12:23:53.303Z,23.4
2022-10-04T12:24:56.345Z,23.4
2022-10-04T12:26:00.104Z,23.3
2022-10-04T12:27:02.973Z,23.3
2022-10-04T12:28:06.238Z,23.3
2022-10-04T12:29:08.997Z,23.3
2022-10-04T12:30:12.152Z,23.3
2022-10-04T12:31:15.817Z,23.3
2022-10-04T12:32:19.266Z,23.3
2022-10-04T12:33:22.119Z,23.3
2022-10-04T12:34:25.137Z,23.3
2022-10-04T12:35:28.292Z,23.2
2022-10-04T12:36:31.971Z,23.2
2022-10-04T12:37:34.680Z,23.1
2022-10-04T12:38:38.388Z,23.1
2022-10-04T12:39:41.723Z,23.1
2022-10-04T12:40:45.226Z,23
2022-10-04T12:41:48.975Z,23
2022-10-04T12:42:52.986Z,23
2022-10-04T12:43:56.525Z,23
2022-10-04T12:44:59.979Z,22.9
2022-10-04T12:46:02.481Z,22.9
2022-10-04T12:47:05.832Z,22.9
2022-10-04T12:48:08.712Z,22.8
2022-10-04T12:49:11.934Z,22.8
2022-10-04T12:50:14.371Z,22.8
2022-10-04T12:51:17.866Z,22.8
2022-10-04T12:52:20.422Z,22.8
2022-10-04T12:53:22.932Z,22.8
2022-10-04T12:54:26.387Z,22.7
2022-10-04T12:55:30.032Z,22.7
2022-10-04T12:56:32.791Z,22.6
2022-10-04T12:57:36.451Z,22.6
2022-10-04T12:58:39.826Z,22.6
2022-10-04T12:59:42.758Z,22.6
2022-10-04T13:00:46.734Z,22.6
2022-10-04T13:01:49.643Z,22.6
2022-10-04T13:02:53.002Z,22.6
2022-10-04T13:03:55.994Z,22.5
2022-10-04T13:04:58.376Z,22.5
2022-10-04T13:06:01.162Z,22.5
2022-10-04T13:07:03.970Z,22.6
2022-10-04T13:08:07.046Z,22.6
2022-10-04T13:09:10.399Z,22.6
2022-10-04T13:10:26.638Z,22.6
2022-10-04T13:11:30.116Z,22.6
2022-10-04T13:12:33.256Z,22.6
2022-10-04T13:13:36.739Z,22.6
2022-10-04T13:14:39.887Z,22.6
2022-10-04T13:18:38.616Z,22.6
2022-10-04T13:19:41.519Z,22.7
2022-10-04T13:20:44.935Z,22.7
2022-10-04T13:21:48.455Z,22.7
2022-10-04T13:22:58.734Z,22.7
2022-10-04T13:24:02.184Z,22.7
2022-10-04T13:25:05.142Z,22.7
2022-10-04T13:26:08.030Z,22.7
2022-10-04T13:27:11.196Z,22.7
2022-10-04T13:28:14.503Z,22.7
2022-10-04T13:29:17.677Z,22.7
2022-10-04T13:30:20.626Z,22.7
2022-10-04T13:31:23.906Z,22.7
2022-10-04T13:32:28.124Z,22.7
2022-10-04T13:33:31.856Z,22.7
2022-10-04T13:34:35.063Z,22.6
2022-10-04T13:35:38.331Z,22.6
2022-10-04T13:36:41.240Z,22.6
2022-10-04T13:37:44.669Z,22.6
2022-10-04T13:38:47.387Z,22.6
2022-10-04T13:39:50.852Z,22.6
2022-10-04T13:40:53.740Z,22.5
2022-10-04T13:41:56.251Z,22.5
2022-10-04T13:42:59.427Z,22.5
2022-10-04T13:44:01.341Z,22.5
2022-10-04T13:45:04.746Z,22.5
2022-10-04T13:46:08.078Z,22.5
2022-10-04T13:47:11.173Z,22.5
2022-10-04T13:48:22.287Z,22.4
2022-10-04T13:49:25.736Z,22.4
2022-10-04T13:50:28.673Z,22.4
2022-10-04T13:51:32.020Z,22.4
2022-10-04T13:52:35.111Z,22.4
2022-10-04T13:53:38.863Z,22.3
2022-10-04T13:54:41.858Z,22.3
2022-10-04T13:55:44.896Z,22.3
2022-10-04T13:56:48.336Z,22.2
2022-10-04T13:57:51.041Z,22.2
2022-10-04T13:58:54.161Z,22.2
2022-10-04T13:59:57.334Z,22.2
2022-10-04T14:01:00.805Z,22.2
2022-10-04T14:02:04.431Z,22.2
2022-10-04T14:03:08.062Z,22.2
2022-10-04T14:04:11.762Z,22.3
2022-10-04T14:05:14.273Z,22.3
2022-10-04T14:06:17.346Z,22.4
2022-10-04T14:07:20.426Z,22.4
2022-10-04T14:08:23.723Z,22.4
2022-10-04T14:09:27.443Z,22.4